Time;durP1;ratioP1;P1;durP2;ratioP2;P2;SDS_P1;SDS_P2;PMS_P1;PMS_P2;Temp;Humidity;BMP_temperature;BMP_pressure;BME280_temperature;BME280_humidity;BME280_pressure;Samples;Min_cycle;Max_cycle;Signal;HPM_P1;HPM_P2
2023/11/22 00:00:47;;;;;;;9.20;7.27;;;;;;;;;;5050732;28;20207;-79
2023/11/22 00:03:14;;;;;;;7.37;5.87;;;;;;;;;;5048042;28;20202;-79
2023/11/22 00:05:41;;;;;;;5.90;5.30;;;;;;;;;;5050118;28;20198;-80
2023/11/22 00:08:08;;;;;;;6.93;5.50;;;;;;;;;;5050598;28;20226;-79
2023/11/22 00:10:35;;;;;;;7.80;6.47;;;;;;;;;;5050227;28;20206;-79
2023/11/22 00:13:02;;;;;;;7.57;5.70;;;;;;;;;;5050381;28;20208;-79
2023/11/22 00:15:29;;;;;;;5.67;5.03;;;;;;;;;;5046209;28;20198;-79
2023/11/22 00:17:57;;;;;;;6.00;5.40;;;;;;;;;;5049446;28;20202;-79
2023/11/22 00:20:24;;;;;;;7.07;6.37;;;;;;;;;;5050688;28;20343;-79
2023/11/22 00:22:51;;;;;;;6.87;6.10;;;;;;;;;;5049858;28;20202;-79
2023/11/22 00:25:19;;;;;;;7.63;6.43;;;;;;;;;;5049808;28;20267;-80
2023/11/22 00:27:46;;;;;;;8.53;6.67;;;;;;;;;;5050483;28;20230;-80
2023/11/22 00:30:14;;;;;;;8.50;6.23;;;;;;;;;;5050268;28;20210;-79
2023/11/22 00:32:41;;;;;;;7.50;6.80;;;;;;;;;;5049614;28;20198;-80
2023/11/22 00:35:10;;;;;;;8.40;7.53;;;;;;;;;;5050084;28;20268;-80
2023/11/22 00:37:37;;;;;;;7.93;7.13;;;;;;;;;;5045031;28;20230;-82
2023/11/22 00:40:10;;;;;;;11.27;8.87;;;;;;;;;;5042033;28;20209;-80
2023/11/22 00:42:37;;;;;;;10.57;9.07;;;;;;;;;;5050121;28;20294;-82
2023/11/22 00:45:05;;;;;;;10.57;8.77;;;;;;;;;;5050437;28;20198;-80
2023/11/22 00:47:32;;;;;;;10.57;9.43;;;;;;;;;;5050012;28;20218;-80
2023/11/22 00:49:59;;;;;;;10.80;8.63;;;;;;;;;;5049656;28;20596;-80
2023/11/22 00:52:27;;;;;;;10.60;9.43;;;;;;;;;;5049700;28;20198;-79
2023/11/22 00:54:54;;;;;;;12.10;8.57;;;;;;;;;;5049767;28;20582;-80
2023/11/22 00:57:21;;;;;;;10.20;8.60;;;;;;;;;;5052727;28;20209;-80
2023/11/22 00:59:48;;;;;;;9.60;8.37;;;;;;;;;;5052897;28;20214;-80
2023/11/22 01:02:14;;;;;;;10.03;8.60;;;;;;;;;;5041159;28;20205;-80
2023/11/22 01:04:41;;;;;;;13.50;9.53;;;;;;;;;;5039977;28;20199;-80
2023/11/22 01:07:08;;;;;;;10.57;9.60;;;;;;;;;;5053610;28;20240;-80
2023/11/22 01:09:36;;;;;;;10.83;9.17;;;;;;;;;;5040051;28;20214;-79
2023/11/22 01:12:04;;;;;;;7.03;6.33;;;;;;;;;;5053240;28;20211;-80
2023/11/22 01:14:30;;;;;;;6.70;6.20;;;;;;;;;;5051030;28;20213;-80
2023/11/22 01:16:57;;;;;;;7.33;6.53;;;;;;;;;;5041617;28;20213;-80
2023/11/22 01:19:26;;;;;;;8.50;6.90;;;;;;;;;;5052666;28;20237;-80
2023/11/22 01:21:52;;;;;;;8.83;7.93;;;;;;;;;;5044644;28;20206;-80
2023/11/22 01:24:19;;;;;;;8.93;7.10;;;;;;;;;;5048503;28;20210;-80
2023/11/22 01:26:47;;;;;;;10.20;7.70;;;;;;;;;;5053101;28;20206;-80
2023/11/22 01:29:14;;;;;;;8.37;7.67;;;;;;;;;;5052499;28;20233;-80
2023/11/22 01:31:41;;;;;;;9.23;8.27;;;;;;;;;;5053007;28;20672;-80
2023/11/22 01:34:08;;;;;;;10.07;7.97;;;;;;;;;;5052934;28;20275;-80
2023/11/22 01:36:34;;;;;;;8.70;7.50;;;;;;;;;;5053309;28;20305;-80
2023/11/22 01:39:03;;;;;;;10.53;8.00;;;;;;;;;;5052028;28;20733;-79
2023/11/22 01:41:30;;;;;;;14.20;9.80;;;;;;;;;;5053208;28;20209;-80
2023/11/22 01:43:59;;;;;;;10.57;9.53;;;;;;;;;;5052410;28;20190;-80
2023/11/22 01:46:26;;;;;;;11.50;9.67;;;;;;;;;;5052766;28;20197;-80
2023/11/22 01:48:53;;;;;;;10.17;9.17;;;;;;;;;;5052512;28;20651;-80
2023/11/22 01:51:21;;;;;;;9.50;8.47;;;;;;;;;;5052653;28;20202;-80
2023/11/22 01:53:48;;;;;;;10.43;8.63;;;;;;;;;;5052034;28;20201;-79
2023/11/22 01:56:16;;;;;;;12.40;8.10;;;;;;;;;;5041255;28;20210;-80
2023/11/22 01:58:43;;;;;;;10.00;9.00;;;;;;;;;;5051288;28;20651;-80
2023/11/22 02:01:12;;;;;;;9.20;8.30;;;;;;;;;;5052086;28;20198;-81
2023/11/22 02:03:39;;;;;;;10.77;8.43;;;;;;;;;;5051948;28;20684;-80
2023/11/22 02:06:10;;;;;;;11.13;8.80;;;;;;;;;;5052624;28;20225;-80
2023/11/22 02:08:37;;;;;;;10.07;8.87;;;;;;;;;;5051185;28;20271;-80
2023/11/22 02:11:05;;;;;;;10.23;8.60;;;;;;;;;;5052365;28;20209;-80
2023/11/22 02:13:32;;;;;;;10.07;8.43;;;;;;;;;;5052398;28;20604;-80
2023/11/22 02:16:01;;;;;;;11.43;9.23;;;;;;;;;;5051984;28;20198;-80
2023/11/22 02:18:29;;;;;;;9.50;8.53;;;;;;;;;;5052669;28;20279;-80
2023/11/22 02:20:57;;;;;;;11.87;7.80;;;;;;;;;;5051629;28;20208;-80
2023/11/22 02:23:25;;;;;;;7.83;7.10;;;;;;;;;;5052281;28;20592;-80
2023/11/22 02:25:53;;;;;;;7.67;6.87;;;;;;;;;;5051493;28;20260;-80
2023/11/22 02:28:20;;;;;;;10.00;9.00;;;;;;;;;;5051798;28;20742;-80
2023/11/22 02:30:47;;;;;;;9.17;8.13;;;;;;;;;;5049045;28;20221;-80
2023/11/22 02:33:14;;;;;;;9.20;7.40;;;;;;;;;;5041511;28;20201;-80
2023/11/22 02:35:42;;;;;;;13.30;9.67;;;;;;;;;;5051095;28;20292;-79
2023/11/22 02:38:08;;;;;;;9.73;8.83;;;;;;;;;;5052220;28;20221;-80
2023/11/22 02:40:37;;;;;;;13.00;10.40;;;;;;;;;;5051582;28;20198;-80
2023/11/22 02:43:07;;;;;;;9.47;8.40;;;;;;;;;;5052138;28;20205;-80
2023/11/22 02:45:34;;;;;;;10.23;9.17;;;;;;;;;;5050981;28;20287;-80
2023/11/22 02:48:03;;;;;;;10.73;8.90;;;;;;;;;;5051722;28;20225;-80
2023/11/22 02:50:31;;;;;;;11.27;8.47;;;;;;;;;;5051266;28;20202;-80
2023/11/22 02:52:59;;;;;;;9.73;8.73;;;;;;;;;;5051767;28;20236;-80
2023/11/22 02:55:25;;;;;;;9.80;8.23;;;;;;;;;;5051025;28;20201;-80
2023/11/22 02:57:54;;;;;;;10.30;7.93;;;;;;;;;;5051218;28;20206;-79
2023/11/22 03:00:21;;;;;;;8.60;7.73;;;;;;;;;;5050826;28;20201;-80
2023/11/22 03:02:53;;;;;;;9.40;7.60;;;;;;;;;;5051537;28;20209;-80
2023/11/22 03:05:20;;;;;;;9.70;8.73;;;;;;;;;;5025174;28;20252;-80
2023/11/22 03:07:47;;;;;;;10.50;8.63;;;;;;;;;;5037271;28;20708;-80
2023/11/22 03:10:14;;;;;;;9.33;8.43;;;;;;;;;;5051194;28;20209;-80
2023/11/22 03:12:41;;;;;;;9.17;7.53;;;;;;;;;;5051034;28;20208;-80
2023/11/22 03:15:11;;;;;;;8.93;7.03;;;;;;;;;;5051391;28;20636;-80
2023/11/22 03:17:38;;;;;;;9.20;7.93;;;;;;;;;;5051179;28;20202;-80
2023/11/22 03:20:09;;;;;;;10.83;9.63;;;;;;;;;;5050197;28;20198;-79
2023/11/22 03:22:36;;;;;;;12.57;10.20;;;;;;;;;;5037531;28;20203;-80
2023/11/22 03:25:03;;;;;;;12.77;11.40;;;;;;;;;;5042034;28;20202;-80
2023/11/22 03:27:30;;;;;;;11.93;10.00;;;;;;;;;;5046362;28;20212;-80
2023/11/22 03:29:57;;;;;;;14.97;8.20;;;;;;;;;;5050539;28;20228;-79
2023/11/22 03:32:25;;;;;;;11.23;8.77;;;;;;;;;;5050682;28;20715;-80
2023/11/22 03:34:52;;;;;;;11.50;8.37;;;;;;;;;;5050690;28;20206;-80
2023/11/22 03:37:19;;;;;;;12.27;9.27;;;;;;;;;;5050856;28;20601;-80
2023/11/22 03:39:48;;;;;;;10.77;9.67;;;;;;;;;;5050399;28;20212;-80
2023/11/22 03:42:16;;;;;;;10.60;9.50;;;;;;;;;;5050572;28;20202;-82
2023/11/22 03:44:42;;;;;;;12.47;10.13;;;;;;;;;;5050842;28;20281;-80
2023/11/22 03:47:11;;;;;;;10.80;9.70;;;;;;;;;;5050279;28;20672;-79
2023/11/22 03:49:39;;;;;;;9.67;8.67;;;;;;;;;;5050827;28;20221;-79
2023/11/22 03:52:08;;;;;;;9.77;8.83;;;;;;;;;;5050778;28;20256;-79
2023/11/22 03:54:35;;;;;;;11.17;9.10;;;;;;;;;;5050326;28;20297;-80
2023/11/22 03:57:02;;;;;;;13.67;9.70;;;;;;;;;;5050853;28;20209;-79
2023/11/22 03:59:29;;;;;;;12.13;9.63;;;;;;;;;;5050216;28;20283;-79
2023/11/22 04:01:55;;;;;;;16.30;13.70;;;;;;;;;;5050271;28;20209;-80
2023/11/22 04:04:22;;;;;;;46.20;41.53;;;;;;;;;;5050280;28;20202;-79
2023/11/22 04:06:52;;;;;;;26.40;23.70;;;;;;;;;;5043200;28;20202;-80
2023/11/22 04:09:20;;;;;;;12.77;11.47;;;;;;;;;;5037617;28;20636;-80
2023/11/22 04:11:47;;;;;;;13.63;11.43;;;;;;;;;;5049984;28;20296;-79
2023/11/22 04:14:14;;;;;;;12.80;11.60;;;;;;;;;;5050020;28;20252;-79
2023/11/22 04:16:41;;;;;;;14.63;12.37;;;;;;;;;;5046414;28;20202;-79
2023/11/22 04:19:07;;;;;;;19.43;13.77;;;;;;;;;;5047326;28;20202;-79
2023/11/22 04:21:34;;;;;;;21.03;13.40;;;;;;;;;;5044773;28;20200;-79
2023/11/22 04:24:02;;;;;;;21.20;14.70;;;;;;;;;;5047714;28;20205;-79
2023/11/22 04:26:29;;;;;;;20.23;15.10;;;;;;;;;;5044587;28;20202;-79
2023/11/22 04:28:56;;;;;;;17.40;12.97;;;;;;;;;;5045252;28;20229;-79
2023/11/22 04:31:23;;;;;;;35.13;31.20;;;;;;;;;;5043541;28;20195;-79
2023/11/22 04:33:49;;;;;;;26.70;23.90;;;;;;;;;;5053042;28;20212;-79
2023/11/22 04:36:16;;;;;;;14.53;12.27;;;;;;;;;;5034325;28;20227;-82
2023/11/22 04:38:43;;;;;;;10.93;9.23;;;;;;;;;;5035415;28;20708;-80
2023/11/22 04:41:11;;;;;;;23.20;19.70;;;;;;;;;;5034699;28;20207;-80
2023/11/22 04:43:40;;;;;;;18.40;16.33;;;;;;;;;;5036138;28;20213;-79
2023/11/22 04:46:08;;;;;;;18.23;13.07;;;;;;;;;;5035482;28;20202;-79
2023/11/22 04:48:36;;;;;;;15.00;12.03;;;;;;;;;;5036645;28;20760;-80
2023/11/22 04:51:03;;;;;;;17.37;13.83;;;;;;;;;;5037965;28;20252;-79
2023/11/22 04:53:32;;;;;;;24.80;18.77;;;;;;;;;;5046904;28;20209;-80
2023/11/22 04:55:59;;;;;;;21.03;16.93;;;;;;;;;;5053106;28;20593;-82
2023/11/22 04:58:27;;;;;;;19.83;16.47;;;;;;;;;;5039850;28;20210;-81
2023/11/22 05:00:54;;;;;;;17.03;14.50;;;;;;;;;;5052843;28;20684;-81
2023/11/22 05:03:20;;;;;;;16.90;13.63;;;;;;;;;;5052187;28;20210;-82
2023/11/22 05:05:47;;;;;;;17.17;14.47;;;;;;;;;;5052823;28;20210;-81
2023/11/22 05:08:14;;;;;;;30.80;27.20;;;;;;;;;;5052263;28;20284;-81
2023/11/22 05:10:41;;;;;;;28.37;23.57;;;;;;;;;;5047269;28;20202;-81
2023/11/22 05:13:08;;;;;;;21.30;17.83;;;;;;;;;;5037961;28;20202;-82
2023/11/22 05:15:36;;;;;;;19.70;15.60;;;;;;;;;;5052988;28;20205;-82
2023/11/22 05:18:03;;;;;;;19.03;15.57;;;;;;;;;;5053199;28;20206;-81
2023/11/22 05:20:32;;;;;;;18.77;14.93;;;;;;;;;;5053264;28;20247;-82
2023/11/22 05:22:59;;;;;;;22.17;16.33;;;;;;;;;;5049351;28;20203;-81
2023/11/22 05:25:26;;;;;;;19.43;15.10;;;;;;;;;;5044489;28;20642;-82
2023/11/22 05:27:53;;;;;;;28.87;20.33;;;;;;;;;;5053008;28;20202;-80
2023/11/22 05:30:20;;;;;;;22.47;15.83;;;;;;;;;;5052945;28;20222;-81
2023/11/22 05:32:48;;;;;;;13.60;11.20;;;;;;;;;;5053429;28;20210;-80
2023/11/22 05:35:15;;;;;;;13.00;11.60;;;;;;;;;;5052836;28;20205;-80
2023/11/22 05:37:42;;;;;;;15.10;11.67;;;;;;;;;;5046519;28;20222;-80
2023/11/22 05:40:10;;;;;;;19.97;13.50;;;;;;;;;;5048910;28;20201;-80
2023/11/22 05:42:37;;;;;;;18.97;14.27;;;;;;;;;;5051813;28;20238;-80
2023/11/22 05:45:05;;;;;;;19.03;15.07;;;;;;;;;;5050857;28;20201;-80
2023/11/22 05:47:32;;;;;;;21.40;14.63;;;;;;;;;;5052405;28;20695;-79
2023/11/22 05:50:00;;;;;;;14.80;11.80;;;;;;;;;;5051948;28;20225;-80
2023/11/22 05:52:27;;;;;;;21.17;16.97;;;;;;;;;;5051923;28;20225;-80
2023/11/22 05:54:54;;;;;;;20.87;15.93;;;;;;;;;;5051681;28;20201;-80
2023/11/22 05:57:20;;;;;;;18.73;15.77;;;;;;;;;;5052313;28;20202;-80
2023/11/22 05:59:47;;;;;;;21.70;16.97;;;;;;;;;;5051699;28;20202;-80
2023/11/22 06:02:14;;;;;;;18.13;15.50;;;;;;;;;;5051893;28;20738;-80
2023/11/22 06:04:41;;;;;;;19.33;14.20;;;;;;;;;;5051676;28;20198;-80
2023/11/22 06:07:09;;;;;;;17.00;13.23;;;;;;;;;;5052483;28;20205;-80
2023/11/22 06:09:37;;;;;;;16.53;13.17;;;;;;;;;;5052274;28;20262;-80
2023/11/22 06:12:05;;;;;;;17.63;12.97;;;;;;;;;;5052046;28;20579;-80
2023/11/22 06:14:32;;;;;;;17.47;14.17;;;;;;;;;;5046189;28;20277;-80
2023/11/22 06:16:59;;;;;;;22.53;13.40;;;;;;;;;;5045255;28;20202;-80
2023/11/22 06:19:25;;;;;;;14.17;11.43;;;;;;;;;;5051722;28;20655;-80
2023/11/22 06:21:52;;;;;;;16.43;12.93;;;;;;;;;;5052432;28;20591;-80
2023/11/22 06:24:20;;;;;;;14.33;11.23;;;;;;;;;;5051914;28;20198;-80
2023/11/22 06:26:49;;;;;;;14.00;10.27;;;;;;;;;;5052057;28;20296;-81
2023/11/22 06:29:16;;;;;;;11.70;10.37;;;;;;;;;;5051583;28;20218;-80
2023/11/22 06:31:43;;;;;;;10.77;9.77;;;;;;;;;;5051662;28;20604;-80
2023/11/22 06:34:10;;;;;;;11.47;10.43;;;;;;;;;;5051764;28;20205;-80
2023/11/22 06:36:36;;;;;;;11.23;10.03;;;;;;;;;;5052196;28;20236;-80
2023/11/22 06:39:04;;;;;;;14.90;11.93;;;;;;;;;;5051531;28;20205;-80
2023/11/22 06:41:32;;;;;;;11.10;10.00;;;;;;;;;;5051450;28;20704;-80
2023/11/22 06:43:59;;;;;;;12.27;10.77;;;;;;;;;;5051642;28;20197;-81
2023/11/22 06:46:26;;;;;;;13.20;11.73;;;;;;;;;;5051948;28;20194;-81
2023/11/22 06:48:55;;;;;;;12.93;11.23;;;;;;;;;;5051640;28;20210;-81
2023/11/22 06:51:22;;;;;;;12.77;11.40;;;;;;;;;;5051851;28;20320;-81
2023/11/22 06:53:49;;;;;;;12.43;10.90;;;;;;;;;;5050970;28;20590;-80
2023/11/22 06:56:16;;;;;;;12.87;11.17;;;;;;;;;;5051301;28;20248;-81
2023/11/22 06:58:44;;;;;;;13.30;11.90;;;;;;;;;;5050832;28;20202;-81
2023/11/22 07:01:11;;;;;;;14.47;11.77;;;;;;;;;;5051355;28;20206;-80
2023/11/22 07:03:40;;;;;;;13.80;11.27;;;;;;;;;;5051433;28;20194;-80
2023/11/22 07:06:09;;;;;;;12.30;10.97;;;;;;;;;;5051326;28;20202;-81
2023/11/22 07:08:36;;;;;;;15.30;10.53;;;;;;;;;;5037629;28;20677;-80
2023/11/22 07:11:04;;;;;;;12.27;11.07;;;;;;;;;;5037496;28;20254;-81
2023/11/22 07:13:31;;;;;;;14.00;12.33;;;;;;;;;;5051255;28;20719;-80
2023/11/22 07:16:00;;;;;;;22.87;16.87;;;;;;;;;;5050851;28;20290;-81
2023/11/22 07:18:27;;;;;;;22.97;19.90;;;;;;;;;;5051334;28;20271;-81
2023/11/22 07:20:55;;;;;;;19.37;14.03;;;;;;;;;;5051446;28;20201;-81
2023/11/22 07:23:25;;;;;;;14.57;12.17;;;;;;;;;;5050908;28;20241;-81
2023/11/22 07:25:52;;;;;;;15.13;13.50;;;;;;;;;;5050903;28;20753;-82
2023/11/22 07:28:18;;;;;;;11.67;10.57;;;;;;;;;;5042370;28;20623;-82
2023/11/22 07:30:48;;;;;;;13.07;11.13;;;;;;;;;;5044135;28;20720;-82
2023/11/22 07:33:16;;;;;;;13.77;11.77;;;;;;;;;;5040193;28;20202;-82
2023/11/22 07:35:43;;;;;;;10.73;9.03;;;;;;;;;;5049984;28;20207;-82
2023/11/22 07:38:11;;;;;;;11.33;10.10;;;;;;;;;;5050616;28;20592;-82
2023/11/22 07:40:39;;;;;;;11.87;10.73;;;;;;;;;;5050659;28;20198;-82
2023/11/22 07:43:07;;;;;;;10.63;9.53;;;;;;;;;;5050664;28;20576;-82
2023/11/22 07:45:34;;;;;;;12.00;10.70;;;;;;;;;;5050519;28;20592;-81
2023/11/22 07:48:03;;;;;;;13.00;11.47;;;;;;;;;;5050990;28;20201;-82
2023/11/22 07:50:31;;;;;;;12.60;11.13;;;;;;;;;;5049984;28;20227;-82
2023/11/22 07:52:58;;;;;;;13.37;11.63;;;;;;;;;;5050975;28;20193;-81
2023/11/22 07:55:25;;;;;;;14.40;12.20;;;;;;;;;;5050773;28;20198;-81
2023/11/22 07:57:53;;;;;;;15.33;13.73;;;;;;;;;;5050465;28;20263;-81
2023/11/22 08:00:20;;;;;;;18.57;13.97;;;;;;;;;;5050144;28;20202;-81
2023/11/22 08:02:47;;;;;;;13.50;12.10;;;;;;;;;;5050624;28;20206;-81
2023/11/22 08:05:15;;;;;;;13.13;10.93;;;;;;;;;;5050454;28;20627;-81
2023/11/22 08:07:45;;;;;;;13.37;12.07;;;;;;;;;;5054809;28;20290;-81
2023/11/22 08:10:18;;;;;;;16.47;12.67;;;;;;;;;;5048554;28;20226;-81
2023/11/22 08:12:46;;;;;;;14.83;12.80;;;;;;;;;;5048222;28;20203;-81
2023/11/22 08:15:15;;;;;;;16.03;13.60;;;;;;;;;;5047051;28;20213;-81
2023/11/22 08:17:42;;;;;;;21.47;19.27;;;;;;;;;;5048689;28;20263;-81
2023/11/22 08:20:13;;;;;;;19.43;16.37;;;;;;;;;;5054266;28;20205;-81
2023/11/22 08:22:45;;;;;;;14.43;13.03;;;;;;;;;;5054063;28;20598;-81
2023/11/22 08:25:12;;;;;;;14.97;13.27;;;;;;;;;;5054348;28;20210;-81
2023/11/22 08:27:41;;;;;;;15.50;13.90;;;;;;;;;;5054244;28;20197;-81
2023/11/22 08:30:12;;;;;;;13.07;11.77;;;;;;;;;;5053546;28;20271;-81
2023/11/22 08:32:42;;;;;;;13.43;12.07;;;;;;;;;;5053942;28;20281;-81
2023/11/22 08:35:10;;;;;;;15.40;11.80;;;;;;;;;;5054055;28;20197;-80
2023/11/22 08:37:38;;;;;;;13.83;12.27;;;;;;;;;;5054166;28;20704;-81
2023/11/22 08:40:11;;;;;;;15.17;13.57;;;;;;;;;;5054001;28;20218;-81
2023/11/22 08:42:37;;;;;;;14.03;12.73;;;;;;;;;;5040798;28;20229;-80
2023/11/22 08:45:05;;;;;;;13.23;11.93;;;;;;;;;;5053790;28;20202;-81
2023/11/22 08:47:32;;;;;;;11.47;10.23;;;;;;;;;;5027806;28;20249;-81
2023/11/22 08:49:59;;;;;;;9.90;8.90;;;;;;;;;;5053728;28;20222;-81
2023/11/22 08:52:25;;;;;;;9.20;8.30;;;;;;;;;;5054153;28;20209;-80
2023/11/22 08:54:52;;;;;;;11.63;9.43;;;;;;;;;;5053278;28;20620;-82
2023/11/22 08:57:21;;;;;;;11.00;9.90;;;;;;;;;;5041711;28;20205;-81
2023/11/22 08:59:47;;;;;;;10.33;9.33;;;;;;;;;;5039671;28;20217;-82
2023/11/22 09:02:15;;;;;;;11.20;10.17;;;;;;;;;;5046265;28;20208;-82
2023/11/22 09:04:42;;;;;;;21.67;16.40;;;;;;;;;;5034586;28;20282;-82
2023/11/22 09:07:10;;;;;;;18.70;15.57;;;;;;;;;;5053519;28;20213;-82
2023/11/22 09:09:37;;;;;;;18.97;15.20;;;;;;;;;;5053297;28;20205;-82
2023/11/22 09:12:12;;;;;;;12.17;10.77;;;;;;;;;;5045075;28;20219;-82
2023/11/22 09:14:42;;;;;;;10.83;9.57;;;;;;;;;;5050150;28;20196;-82
2023/11/22 09:17:10;;;;;;;11.73;10.57;;;;;;;;;;5053561;28;20202;-83
2023/11/22 09:19:37;;;;;;;12.70;11.50;;;;;;;;;;5040399;28;20205;-83
2023/11/22 09:22:07;;;;;;;12.07;10.90;;;;;;;;;;5042730;28;21128;-83
2023/11/22 09:24:36;;;;;;;11.37;10.20;;;;;;;;;;5052369;28;20225;-83
2023/11/22 09:27:05;;;;;;;12.77;11.07;;;;;;;;;;5041393;28;20203;-83
2023/11/22 09:29:32;;;;;;;12.47;10.43;;;;;;;;;;5053258;28;20225;-83
2023/11/22 09:32:02;;;;;;;13.07;11.67;;;;;;;;;;5040332;28;20574;-82
2023/11/22 09:34:29;;;;;;;12.70;11.40;;;;;;;;;;5046872;28;20265;-83
2023/11/22 09:36:56;;;;;;;15.30;13.57;;;;;;;;;;5033211;28;20257;-82
2023/11/22 09:39:24;;;;;;;14.73;13.23;;;;;;;;;;5046355;28;20219;-82
2023/11/22 09:41:52;;;;;;;12.87;11.57;;;;;;;;;;5046453;28;20229;-84
2023/11/22 09:44:20;;;;;;;17.67;15.87;;;;;;;;;;5026831;28;20216;-82
2023/11/22 09:46:50;;;;;;;16.00;14.40;;;;;;;;;;5053115;28;20625;-82
2023/11/22 09:49:22;;;;;;;14.17;12.83;;;;;;;;;;5045117;28;20206;-83
2023/11/22 09:51:52;;;;;;;14.53;13.20;;;;;;;;;;5046250;28;20225;-82
2023/11/22 09:54:19;;;;;;;15.33;13.27;;;;;;;;;;5041903;28;20202;-82
2023/11/22 09:56:50;;;;;;;14.30;12.67;;;;;;;;;;5052367;28;20212;-82
2023/11/22 09:59:19;;;;;;;13.63;12.13;;;;;;;;;;5052336;28;20198;-82
2023/11/22 10:01:45;;;;;;;12.33;11.13;;;;;;;;;;5052560;28;20214;-81
2023/11/22 10:04:12;;;;;;;14.03;12.80;;;;;;;;;;5052654;28;20239;-82
2023/11/22 10:06:46;;;;;;;12.93;11.63;;;;;;;;;;5052361;28;20204;-81
2023/11/22 10:09:14;;;;;;;12.47;10.77;;;;;;;;;;5052581;28;20675;-82
2023/11/22 10:11:43;;;;;;;17.90;15.90;;;;;;;;;;5051955;28;20316;-82
2023/11/22 10:14:10;;;;;;;16.37;14.77;;;;;;;;;;5052376;28;20233;-81
2023/11/22 10:16:37;;;;;;;26.10;23.60;;;;;;;;;;5046917;28;20207;-81
2023/11/22 10:19:06;;;;;;;13.47;12.13;;;;;;;;;;5044336;28;20209;-81
2023/11/22 10:21:33;;;;;;;12.40;11.20;;;;;;;;;;5038477;28;20201;-81
2023/11/22 10:24:03;;;;;;;11.50;10.47;;;;;;;;;;5052320;28;20214;-82
2023/11/22 10:26:31;;;;;;;13.10;11.80;;;;;;;;;;5052565;28;20285;-82
2023/11/22 10:29:00;;;;;;;13.53;12.17;;;;;;;;;;5051585;28;20232;-82
2023/11/22 10:31:27;;;;;;;12.30;11.13;;;;;;;;;;5052049;28;20226;-81
2023/11/22 10:33:55;;;;;;;14.80;11.63;;;;;;;;;;5051951;28;20204;-81
2023/11/22 10:36:23;;;;;;;12.20;11.03;;;;;;;;;;5052282;28;20242;-81
2023/11/22 10:38:51;;;;;;;16.50;13.93;;;;;;;;;;5049539;28;20209;-81
2023/11/22 10:41:21;;;;;;;15.43;13.93;;;;;;;;;;5041140;28;20220;-81
2023/11/22 10:43:48;;;;;;;14.37;12.90;;;;;;;;;;5051981;28;20236;-81
2023/11/22 10:46:14;;;;;;;12.37;11.20;;;;;;;;;;5051505;28;20210;-81
2023/11/22 10:48:41;;;;;;;13.07;11.87;;;;;;;;;;5048364;28;20809;-81
2023/11/22 10:51:13;;;;;;;11.13;10.07;;;;;;;;;;5041648;28;20248;-81
2023/11/22 10:53:48;;;;;;;11.43;10.30;;;;;;;;;;5051705;28;20225;-81
2023/11/22 10:56:19;;;;;;;11.10;10.10;;;;;;;;;;5051599;28;20672;-80
2023/11/22 10:58:49;;;;;;;10.30;9.40;;;;;;;;;;5051231;28;20211;-81
2023/11/22 11:01:17;;;;;;;10.43;9.50;;;;;;;;;;5051320;28;20725;-84
2023/11/22 11:03:49;;;;;;;12.13;11.00;;;;;;;;;;5025539;28;20642;-81
2023/11/22 11:06:16;;;;;;;8.40;7.60;;;;;;;;;;5051079;28;20272;-81
2023/11/22 11:08:45;;;;;;;8.80;8.10;;;;;;;;;;5051055;28;20220;-81
2023/11/22 11:11:12;;;;;;;8.20;7.40;;;;;;;;;;5051038;28;20707;-81
2023/11/22 11:13:43;;;;;;;8.83;7.87;;;;;;;;;;5050970;28;20198;-81
2023/11/22 11:16:11;;;;;;;8.53;7.83;;;;;;;;;;5050819;28;20673;-80
2023/11/22 11:18:41;;;;;;;9.13;8.30;;;;;;;;;;5051035;28;20643;-81
2023/11/22 11:21:11;;;;;;;8.87;8.17;;;;;;;;;;5047950;28;20622;-81
2023/11/22 11:23:44;;;;;;;8.73;8.00;;;;;;;;;;5041432;28;20213;-81
2023/11/22 11:26:16;;;;;;;9.00;7.90;;;;;;;;;;5051402;28;20208;-80
2023/11/22 11:28:44;;;;;;;8.93;8.13;;;;;;;;;;5051084;28;20197;-80
2023/11/22 11:31:12;;;;;;;9.17;8.37;;;;;;;;;;5050378;28;20237;-80
2023/11/22 11:33:55;;;;;;;8.10;7.40;;;;;;;;;;5051146;28;20267;-81
2023/11/22 11:36:24;;;;;;;8.30;7.50;;;;;;;;;;5027676;28;20237;-81
2023/11/22 11:38:53;;;;;;;8.63;7.93;;;;;;;;;;5048842;28;20629;-81
2023/11/22 11:41:19;;;;;;;19.80;15.10;;;;;;;;;;5039889;28;20268;-81
2023/11/22 11:43:47;;;;;;;13.53;11.00;;;;;;;;;;5050641;28;20208;-81
2023/11/22 11:46:16;;;;;;;8.97;8.17;;;;;;;;;;5051427;28;20216;-81
2023/11/22 11:48:44;;;;;;;11.37;10.13;;;;;;;;;;5050281;28;20208;-81
2023/11/22 11:51:14;;;;;;;11.80;9.60;;;;;;;;;;5040472;28;20256;-81
2023/11/22 11:53:41;;;;;;;11.17;9.87;;;;;;;;;;5048343;28;20209;-81
2023/11/22 11:56:09;;;;;;;10.23;9.23;;;;;;;;;;5039793;28;20320;-81
2023/11/22 11:58:36;;;;;;;10.60;9.63;;;;;;;;;;5043749;28;20210;-81
2023/11/22 12:01:03;;;;;;;12.30;11.10;;;;;;;;;;5042693;28;20206;-81
2023/11/22 12:03:31;;;;;;;18.37;14.63;;;;;;;;;;5050564;28;20217;-81
2023/11/22 12:05:58;;;;;;;22.37;16.63;;;;;;;;;;5050568;28;20217;-80
2023/11/22 12:08:24;;;;;;;15.60;13.60;;;;;;;;;;5031588;28;20238;-81
2023/11/22 12:10:52;;;;;;;12.03;10.93;;;;;;;;;;5043218;28;20233;-80
2023/11/22 12:13:19;;;;;;;9.57;8.67;;;;;;;;;;5044450;28;20245;-80
2023/11/22 12:15:46;;;;;;;8.70;7.90;;;;;;;;;;5043233;28;20209;-81
2023/11/22 12:18:13;;;;;;;8.67;7.77;;;;;;;;;;5050027;28;20280;-81
2023/11/22 12:20:55;;;;;;;8.40;7.60;;;;;;;;;;5050333;28;20202;-84
2023/11/22 12:23:22;;;;;;;8.47;7.77;;;;;;;;;;5019452;28;20285;-80
2023/11/22 12:25:50;;;;;;;8.47;7.73;;;;;;;;;;5045405;28;20236;-81
2023/11/22 12:28:18;;;;;;;8.07;7.27;;;;;;;;;;5050127;28;20232;-81
2023/11/22 12:30:46;;;;;;;9.57;8.57;;;;;;;;;;5049326;28;20697;-81
2023/11/22 12:33:15;;;;;;;9.63;8.80;;;;;;;;;;5050290;28;20194;-81
2023/11/22 12:35:45;;;;;;;8.63;7.80;;;;;;;;;;5047052;28;20201;-81
2023/11/22 12:38:11;;;;;;;8.83;8.03;;;;;;;;;;5039761;28;20202;-81
2023/11/22 12:40:38;;;;;;;9.87;8.97;;;;;;;;;;5049978;28;20198;-80
2023/11/22 12:43:06;;;;;;;10.47;9.47;;;;;;;;;;5050148;28;20198;-81
2023/11/22 12:45:38;;;;;;;13.43;10.67;;;;;;;;;;5046466;28;20199;-81
2023/11/22 12:48:21;;;;;;;10.07;9.07;;;;;;;;;;5041422;28;20283;-81
2023/11/22 12:50:49;;;;;;;12.63;11.33;;;;;;;;;;5049913;28;20214;-81
2023/11/22 12:53:16;;;;;;;18.13;15.00;;;;;;;;;;5052714;28;20206;-81
2023/11/22 12:55:44;;;;;;;14.03;11.97;;;;;;;;;;5046509;28;20213;-81
2023/11/22 12:58:12;;;;;;;12.90;11.47;;;;;;;;;;5047867;28;20259;-81
2023/11/22 13:00:39;;;;;;;12.77;11.47;;;;;;;;;;5053854;28;20280;-81
2023/11/22 13:03:10;;;;;;;11.97;10.73;;;;;;;;;;5053734;28;20205;-80
2023/11/22 13:05:37;;;;;;;10.63;9.53;;;;;;;;;;5045032;28;20282;-80
2023/11/22 13:08:06;;;;;;;11.63;9.37;;;;;;;;;;5049054;28;20202;-81
2023/11/22 13:10:33;;;;;;;10.50;9.53;;;;;;;;;;5053705;28;20205;-80
2023/11/22 13:13:00;;;;;;;9.63;8.07;;;;;;;;;;5052668;28;20229;-81
2023/11/22 13:15:27;;;;;;;4.93;4.53;;;;;;;;;;5053485;28;20206;-81
2023/11/22 13:17:55;;;;;;;5.17;4.67;;;;;;;;;;5053093;28;20592;-81
2023/11/22 13:20:23;;;;;;;5.50;4.80;;;;;;;;;;5053168;28;20281;-81
2023/11/22 13:22:50;;;;;;;5.70;5.20;;;;;;;;;;5053288;28;20677;-81
2023/11/22 13:25:18;;;;;;;6.73;6.07;;;;;;;;;;5053322;28;20194;-81
2023/11/22 13:27:46;;;;;;;14.73;13.23;;;;;;;;;;5049416;28;20597;-81
2023/11/22 13:30:14;;;;;;;8.57;6.23;;;;;;;;;;5044179;28;20296;-81
2023/11/22 13:32:42;;;;;;;18.57;12.60;;;;;;;;;;5053345;28;20222;-80
2023/11/22 13:35:14;;;;;;;8.67;7.70;;;;;;;;;;5041286;28;20221;-81
2023/11/22 13:37:42;;;;;;;14.70;11.20;;;;;;;;;;5052640;28;20229;-81
2023/11/22 13:40:14;;;;;;;11.10;9.27;;;;;;;;;;5053331;28;20283;-81
2023/11/22 13:42:47;;;;;;;7.20;6.70;;;;;;;;;;5020538;28;20222;-81
2023/11/22 13:45:16;;;;;;;5.83;4.50;;;;;;;;;;5047517;28;20275;-81
2023/11/22 13:47:46;;;;;;;4.70;4.23;;;;;;;;;;5045029;28;20304;-81
2023/11/22 13:50:15;;;;;;;4.80;4.30;;;;;;;;;;5048165;28;20648;-81
2023/11/22 13:52:42;;;;;;;6.90;5.37;;;;;;;;;;5044185;28;20292;-81
2023/11/22 13:55:11;;;;;;;9.27;8.37;;;;;;;;;;5048128;28;20267;-81
2023/11/22 13:57:38;;;;;;;7.07;6.47;;;;;;;;;;5052936;28;20256;-80
2023/11/22 14:00:12;;;;;;;6.30;5.70;;;;;;;;;;5052299;28;20201;-80
2023/11/22 14:02:38;;;;;;;6.87;6.13;;;;;;;;;;5052650;28;20567;-80
2023/11/22 14:05:08;;;;;;;5.80;5.30;;;;;;;;;;5051190;28;20197;-81
2023/11/22 14:07:36;;;;;;;6.50;5.90;;;;;;;;;;5052538;28;20263;-81
2023/11/22 14:10:04;;;;;;;8.03;7.33;;;;;;;;;;5052077;28;20198;-81
2023/11/22 14:12:31;;;;;;;11.60;10.40;;;;;;;;;;5052417;28;20233;-81
2023/11/22 14:14:58;;;;;;;13.43;12.07;;;;;;;;;;5052596;28;20293;-81
2023/11/22 14:17:27;;;;;;;10.23;9.13;;;;;;;;;;5052055;28;20255;-81
2023/11/22 14:19:54;;;;;;;7.33;6.30;;;;;;;;;;5051739;28;20206;-80
2023/11/22 14:22:21;;;;;;;6.00;5.47;;;;;;;;;;5052402;28;20297;-80
2023/11/22 14:24:48;;;;;;;8.73;6.70;;;;;;;;;;5026235;28;20212;-80
2023/11/22 14:27:15;;;;;;;7.47;6.77;;;;;;;;;;5052064;28;20676;-81
2023/11/22 14:29:42;;;;;;;7.13;6.40;;;;;;;;;;5051872;28;20200;-80